Time;durP1;ratioP1;P1;durP2;ratioP2;P2;SDS_P1;SDS_P2;PMS_P1;PMS_P2;Temp;Humidity;BMP_temperature;BMP_pressure;BME280_temperature;BME280_humidity;BME280_pressure;Samples;Min_cycle;Max_cycle;Signal;HPM_P1;HPM_P2
2022/11/12 00:01:58;;;;;;;15.93;11.33;;;8.50;99.90;;;;;;5012546;28;20541;-77
2022/11/12 00:04:25;;;;;;;17.20;11.07;;;8.50;99.90;;;;;;5032235;28;20211;-77
2022/11/12 00:06:52;;;;;;;12.23;10.27;;;8.40;99.90;;;;;;5019918;28;20259;-77
2022/11/12 00:09:19;;;;;;;13.23;9.77;;;8.30;99.90;;;;;;5023121;28;20627;-76
2022/11/12 00:11:46;;;;;;;13.27;9.60;;;8.30;99.90;;;;;;5012812;28;20207;-76
2022/11/12 00:14:14;;;;;;;17.00;12.47;;;8.30;99.90;;;;;;5012265;28;20199;-77
2022/11/12 00:16:41;;;;;;;18.47;12.30;;;8.30;99.90;;;;;;5012725;28;20494;-76
2022/11/12 00:19:08;;;;;;;18.57;12.43;;;8.30;99.90;;;;;;5012334;28;20208;-79
2022/11/12 00:21:34;;;;;;;16.70;11.60;;;8.30;99.90;;;;;;5011700;28;20235;-78
2022/11/12 00:24:02;;;;;;;17.77;12.90;;;8.40;99.90;;;;;;5012653;28;20213;-78
2022/11/12 00:26:28;;;;;;;19.00;13.73;;;8.40;99.90;;;;;;5012781;28;20207;-79
2022/11/12 00:28:56;;;;;;;18.60;13.33;;;8.50;99.90;;;;;;5011298;28;20209;-80
2022/11/12 00:31:24;;;;;;;19.27;13.93;;;8.50;99.90;;;;;;5012591;28;20206;-78
2022/11/12 00:33:51;;;;;;;21.00;13.53;;;8.60;99.90;;;;;;5012237;28;20199;-78
2022/11/12 00:36:18;;;;;;;18.10;13.07;;;8.60;99.90;;;;;;5011816;28;20211;-78
2022/11/12 00:38:45;;;;;;;19.03;12.93;;;8.60;99.90;;;;;;5031734;28;20210;-77
2022/11/12 00:41:11;;;;;;;16.37;12.60;;;8.70;99.90;;;;;;5031859;28;20218;-81
2022/11/12 00:43:38;;;;;;;15.70;12.40;;;8.70;99.90;;;;;;5016435;28;20203;-79
2022/11/12 00:46:05;;;;;;;21.17;14.90;;;8.70;99.90;;;;;;5012325;28;20289;-79
2022/11/12 00:48:34;;;;;;;19.43;14.30;;;8.80;99.90;;;;;;4994598;28;20207;-78
2022/11/12 00:51:02;;;;;;;19.70;14.10;;;8.80;99.90;;;;;;5011536;28;20695;-79
2022/11/12 00:53:28;;;;;;;17.87;13.90;;;8.80;99.90;;;;;;5012165;28;20222;-79
2022/11/12 00:56:00;;;;;;;19.60;14.27;;;8.90;99.90;;;;;;5011967;28;20203;-78
2022/11/12 00:58:29;;;;;;;18.93;14.27;;;8.90;99.90;;;;;;5011787;28;20194;-78
2022/11/12 01:00:55;;;;;;;21.33;14.37;;;8.90;99.90;;;;;;5011305;28;20226;-77
2022/11/12 01:03:22;;;;;;;22.27;14.37;;;8.90;99.90;;;;;;5012130;28;20210;-79
2022/11/12 01:05:51;;;;;;;21.23;14.33;;;9.00;99.90;;;;;;5012097;28;20195;-78
2022/11/12 01:08:17;;;;;;;20.93;14.67;;;9.00;99.90;;;;;;5012174;28;20290;-80
2022/11/12 01:10:44;;;;;;;17.20;13.83;;;9.00;99.90;;;;;;5011488;28;20845;-79
2022/11/12 01:13:11;;;;;;;18.67;14.77;;;9.00;99.90;;;;;;5011693;28;20217;-79
2022/11/12 01:15:41;;;;;;;18.27;13.87;;;9.00;99.90;;;;;;5011880;28;20507;-78
2022/11/12 01:18:08;;;;;;;19.10;13.87;;;9.10;99.90;;;;;;5011559;28;20226;-79
2022/11/12 01:20:37;;;;;;;20.87;14.27;;;9.10;99.90;;;;;;5011739;28;20233;-78
2022/11/12 01:23:06;;;;;;;20.93;16.27;;;9.10;99.90;;;;;;5011627;28;20214;-78
2022/11/12 01:25:33;;;;;;;26.17;17.40;;;9.10;99.90;;;;;;5011348;28;20497;-78
2022/11/12 01:28:00;;;;;;;23.20;16.50;;;9.20;99.90;;;;;;5011740;28;20203;-79
2022/11/12 01:30:26;;;;;;;25.93;16.43;;;9.10;99.90;;;;;;5011898;28;20202;-79
2022/11/12 01:32:53;;;;;;;23.60;16.43;;;9.20;99.90;;;;;;5014850;28;20294;-79
2022/11/12 01:35:20;;;;;;;25.10;17.80;;;9.20;99.90;;;;;;5015519;28;20722;-78
2022/11/12 01:37:47;;;;;;;21.23;16.87;;;9.20;99.90;;;;;;5015666;28;20206;-79
2022/11/12 01:40:16;;;;;;;21.33;15.97;;;9.20;99.90;;;;;;5014710;28;20758;-78
2022/11/12 01:42:43;;;;;;;22.87;17.10;;;9.20;99.90;;;;;;5015308;28;20319;-78
2022/11/12 01:45:15;;;;;;;20.80;16.60;;;9.20;99.90;;;;;;5027168;28;20324;-78
2022/11/12 01:47:44;;;;;;;23.83;18.33;;;9.20;99.90;;;;;;5017133;28;20287;-79
2022/11/12 01:50:17;;;;;;;22.37;15.93;;;9.20;99.90;;;;;;5016540;28;20310;-79
2022/11/12 01:52:48;;;;;;;18.90;15.83;;;9.30;99.90;;;;;;5016717;28;20195;-79
2022/11/12 01:55:19;;;;;;;25.33;17.90;;;9.30;99.90;;;;;;5016843;28;20241;-80
2022/11/12 01:57:52;;;;;;;22.10;17.10;;;9.30;99.90;;;;;;5016968;28;20287;-80
2022/11/12 02:00:19;;;;;;;22.23;17.27;;;9.30;99.90;;;;;;5035906;28;20194;-79
2022/11/12 02:02:51;;;;;;;20.00;15.53;;;9.30;99.90;;;;;;5036290;28;20606;-80
2022/11/12 02:05:20;;;;;;;22.13;17.37;;;9.30;99.90;;;;;;5031783;28;20271;-80
2022/11/12 02:07:48;;;;;;;27.43;19.13;;;9.30;99.90;;;;;;5019053;28;20211;-79
2022/11/12 02:10:16;;;;;;;26.33;19.57;;;9.40;99.90;;;;;;5016209;28;20214;-79
2022/11/12 02:15:28;;;;;;;27.50;20.17;;;9.40;99.90;;;;;;4984916;28;20207;-79
2022/11/12 02:17:55;;;;;;;24.77;18.53;;;9.40;99.90;;;;;;5016241;28;20535;-81
2022/11/12 02:20:22;;;;;;;25.87;19.23;;;9.40;99.90;;;;;;5016335;28;20203;-78
2022/11/12 02:22:50;;;;;;;27.13;18.97;;;9.40;99.90;;;;;;5015807;28;20329;-79
2022/11/12 02:25:19;;;;;;;23.87;18.30;;;9.40;99.90;;;;;;5016652;28;20199;-79
2022/11/12 02:27:50;;;;;;;27.70;19.73;;;9.40;99.90;;;;;;5015843;28;20208;-79
2022/11/12 02:30:18;;;;;;;24.33;19.57;;;9.40;99.90;;;;;;5016663;28;20246;-79
2022/11/12 02:32:45;;;;;;;28.27;21.03;;;9.40;99.90;;;;;;5016170;28;20635;-79
2022/11/12 02:35:12;;;;;;;26.47;20.47;;;9.40;99.90;;;;;;5015845;28;20381;-79
2022/11/12 02:37:38;;;;;;;28.07;20.70;;;9.40;99.90;;;;;;5019301;28;20603;-79
2022/11/12 02:40:08;;;;;;;31.63;21.93;;;9.40;99.90;;;;;;5035796;28;20203;-80
2022/11/12 02:42:35;;;;;;;26.60;20.43;;;9.40;99.90;;;;;;5021495;28;20239;-81
2022/11/12 02:45:02;;;;;;;26.03;20.73;;;9.40;99.90;;;;;;5015810;28;20199;-78
2022/11/12 02:47:29;;;;;;;30.60;23.57;;;9.50;99.90;;;;;;5016260;28;20200;-79
2022/11/12 02:49:56;;;;;;;33.60;23.43;;;9.50;99.90;;;;;;5015344;28;20663;-80
2022/11/12 02:52:23;;;;;;;37.17;23.23;;;9.50;99.90;;;;;;5030254;28;20206;-79
2022/11/12 02:54:50;;;;;;;31.43;23.63;;;9.50;99.90;;;;;;5015730;28;20236;-80
2022/11/12 02:57:18;;;;;;;30.27;24.10;;;9.50;99.90;;;;;;5014982;28;20210;-81
2022/11/12 02:59:45;;;;;;;31.67;23.07;;;9.50;99.90;;;;;;5015808;28;20226;-80
2022/11/12 03:02:12;;;;;;;31.20;23.63;;;9.50;99.90;;;;;;5015353;28;20223;-80
2022/11/12 03:04:39;;;;;;;30.33;22.17;;;9.50;99.90;;;;;;5014461;28;20218;-80
2022/11/12 03:07:06;;;;;;;31.20;23.07;;;9.50;99.90;;;;;;5015536;28;20211;-80
2022/11/12 03:09:34;;;;;;;30.63;21.93;;;9.50;99.90;;;;;;5015410;28;20337;-81
2022/11/12 03:12:01;;;;;;;26.73;20.03;;;9.50;99.90;;;;;;5013672;28;20568;-81
2022/11/12 03:14:29;;;;;;;25.90;20.63;;;9.60;99.90;;;;;;5013785;28;20206;-81
2022/11/12 03:16:56;;;;;;;25.40;19.47;;;9.50;99.90;;;;;;5026576;28;20292;-81
2022/11/12 03:19:23;;;;;;;36.30;24.00;;;9.60;99.90;;;;;;5033300;28;20501;-81
2022/11/12 03:21:50;;;;;;;33.40;24.70;;;9.60;99.90;;;;;;5032171;28;20250;-80
2022/11/12 03:24:17;;;;;;;34.00;25.40;;;9.60;99.90;;;;;;5033119;28;20208;-81
2022/11/12 03:26:44;;;;;;;31.07;23.33;;;9.60;99.90;;;;;;5033489;28;20198;-80
2022/11/12 03:29:10;;;;;;;30.00;24.10;;;9.60;99.90;;;;;;5031688;28;20622;-80
2022/11/12 03:31:39;;;;;;;36.17;26.90;;;9.60;99.90;;;;;;5013093;28;20199;-81
2022/11/12 03:34:05;;;;;;;33.17;25.80;;;9.60;99.90;;;;;;5013274;28;20492;-81
2022/11/12 03:36:32;;;;;;;42.50;29.60;;;9.70;99.90;;;;;;5013620;28;20290;-79
2022/11/12 03:38:59;;;;;;;45.20;32.03;;;9.70;99.90;;;;;;5012393;28;20219;-79
2022/11/12 03:41:26;;;;;;;43.03;32.00;;;9.70;99.90;;;;;;5013069;28;20223;-79
2022/11/12 03:43:53;;;;;;;43.77;32.20;;;9.70;99.90;;;;;;5012675;28;20211;-79
2022/11/12 03:46:20;;;;;;;44.40;31.60;;;9.70;99.90;;;;;;5011954;28;20254;-79
2022/11/12 03:48:48;;;;;;;43.37;32.63;;;9.70;99.90;;;;;;5012906;28;20286;-80
2022/11/12 03:51:17;;;;;;;43.30;31.80;;;9.70;99.90;;;;;;5012923;28;20509;-79
2022/11/12 03:53:44;;;;;;;52.23;35.97;;;9.70;99.90;;;;;;5011865;28;20204;-80
2022/11/12 03:56:11;;;;;;;54.83;34.33;;;9.70;99.90;;;;;;5013131;28;20213;-79
2022/11/12 03:58:37;;;;;;;48.77;33.37;;;9.70;99.90;;;;;;5013043;28;20601;-79
2022/11/12 04:01:04;;;;;;;48.13;35.43;;;9.70;99.90;;;;;;5012081;28;20240;-79
2022/11/12 04:03:31;;;;;;;50.07;34.33;;;9.70;99.90;;;;;;5012374;28;20655;-79
2022/11/12 04:08:44;;;;;;;48.60;33.90;;;9.70;99.90;;;;;;5032608;28;20267;-79
2022/11/12 04:11:13;;;;;;;50.97;35.03;;;9.60;99.90;;;;;;5012451;28;20265;-80
2022/11/12 04:13:40;;;;;;;56.23;37.70;;;9.60;99.90;;;;;;5012407;28;20199;-80
2022/11/12 04:21:50;;;;;;;47.10;33.30;;;9.60;99.90;;;;;;5012280;28;20215;-80
2022/11/12 04:27:03;;;;;;;50.87;34.37;;;9.50;99.90;;;;;;5012615;28;20221;-80
2022/11/12 04:32:14;;;;;;;51.47;35.50;;;9.50;99.90;;;;;;5012893;28;20265;-78
2022/11/12 04:34:41;;;;;;;50.90;33.07;;;9.50;99.90;;;;;;5012465;28;20203;-78
2022/11/12 04:37:09;;;;;;;64.07;37.00;;;9.40;99.90;;;;;;5013044;28;20206;-79
2022/11/12 04:39:36;;;;;;;53.47;33.97;;;9.40;99.90;;;;;;5012562;28;20237;-79
2022/11/12 04:45:00;;;;;;;53.07;33.77;;;9.30;99.90;;;;;;5012267;28;20286;-81
2022/11/12 04:47:28;;;;;;;71.10;34.87;;;9.30;99.90;;;;;;5012428;28;20208;-82
2022/11/12 04:49:55;;;;;;;51.20;34.50;;;9.20;99.90;;;;;;5011743;28;20618;-80
2022/11/12 04:52:23;;;;;;;50.37;32.90;;;9.20;99.90;;;;;;5012427;28;20294;-81
2022/11/12 04:54:50;;;;;;;52.10;33.60;;;9.20;99.90;;;;;;5012926;28;20199;-79
2022/11/12 04:57:17;;;;;;;57.73;34.97;;;9.20;99.90;;;;;;5011824;28;20212;-79
2022/11/12 04:59:44;;;;;;;58.00;34.43;;;9.20;99.90;;;;;;5012657;28;20210;-78
2022/11/12 05:02:11;;;;;;;52.70;33.97;;;9.10;99.90;;;;;;5012559;28;20230;-78
2022/11/12 05:04:38;;;;;;;50.20;34.63;;;9.10;99.90;;;;;;5012101;28;20203;-79
2022/11/12 05:07:05;;;;;;;56.73;34.70;;;9.00;99.90;;;;;;5014208;28;20203;-82
2022/11/12 05:09:33;;;;;;;58.23;37.07;;;9.00;99.90;;;;;;5016240;28;20198;-78
2022/11/12 05:12:00;;;;;;;58.53;38.17;;;9.00;99.90;;;;;;5016341;28;20202;-77
2022/11/12 05:14:27;;;;;;;72.90;37.93;;;9.00;99.90;;;;;;5015783;28;20207;-78
2022/11/12 05:16:54;;;;;;;57.53;35.97;;;9.00;99.90;;;;;;5015761;28;20517;-79
2022/11/12 05:19:22;;;;;;;58.07;37.20;;;9.00;99.90;;;;;;5016622;28;20282;-78
2022/11/12 05:22:07;;;;;;;56.03;36.60;;;9.00;99.90;;;;;;5016124;28;20230;-79
2022/11/12 05:24:38;;;;;;;54.93;35.93;;;9.00;99.90;;;;;;5015977;28;20487;-78
2022/11/12 05:27:06;;;;;;;60.50;37.60;;;9.00;99.90;;;;;;5015892;28;20207;-78
2022/11/12 05:29:33;;;;;;;61.73;38.57;;;9.00;99.90;;;;;;5015872;28;20206;-79
2022/11/12 05:32:00;;;;;;;60.73;38.20;;;9.00;99.90;;;;;;5015358;28;20203;-77
2022/11/12 05:34:27;;;;;;;68.10;39.63;;;9.00;99.90;;;;;;5016054;28;20500;-78
2022/11/12 05:36:54;;;;;;;60.73;37.70;;;9.00;99.90;;;;;;5015875;28;20203;-79
2022/11/12 05:39:21;;;;;;;65.30;40.30;;;9.00;99.90;;;;;;5014767;28;20218;-78
2022/11/12 05:41:49;;;;;;;64.33;39.03;;;9.00;99.90;;;;;;5015531;28;20536;-80
2022/11/12 05:44:16;;;;;;;66.47;39.43;;;9.00;99.90;;;;;;5015784;28;20203;-78
2022/11/12 05:46:43;;;;;;;64.13;38.83;;;9.00;99.90;;;;;;5015196;28;20199;-79
2022/11/12 05:49:10;;;;;;;60.07;37.97;;;9.00;99.90;;;;;;5015633;28;20538;-78
2022/11/12 05:51:37;;;;;;;60.23;38.50;;;9.00;99.90;;;;;;5015440;28;20223;-79
2022/11/12 05:54:05;;;;;;;63.97;38.97;;;9.00;99.90;;;;;;5014351;28;20618;-79
2022/11/12 05:56:32;;;;;;;71.30;42.17;;;9.00;99.90;;;;;;5014894;28;20212;-78
2022/11/12 05:59:01;;;;;;;69.13;42.07;;;9.00;99.90;;;;;;5014831;28;20203;-80
2022/11/12 06:01:28;;;;;;;64.07;40.20;;;9.00;99.90;;;;;;5015490;28;20819;-79
2022/11/12 06:03:55;;;;;;;72.07;41.13;;;9.00;99.90;;;;;;5016070;28;20627;-80
2022/11/12 06:06:23;;;;;;;63.77;37.87;;;9.00;99.90;;;;;;5015333;28;20294;-79
2022/11/12 06:08:50;;;;;;;70.97;41.40;;;9.00;99.90;;;;;;5015679;28;20470;-79
2022/11/12 06:11:17;;;;;;;72.57;42.87;;;9.00;99.90;;;;;;5015801;28;20231;-78
2022/11/12 06:13:44;;;;;;;71.03;42.17;;;9.00;99.90;;;;;;5015380;28;20337;-80
2022/11/12 06:16:12;;;;;;;77.13;43.70;;;9.00;99.90;;;;;;5015182;28;20596;-79
2022/11/12 06:18:39;;;;;;;71.63;42.87;;;9.00;99.90;;;;;;5015420;28;20225;-78
2022/11/12 06:21:21;;;;;;;77.87;41.50;;;9.00;99.90;;;;;;5014517;28;20206;-78
2022/11/12 06:23:50;;;;;;;75.30;44.40;;;9.00;99.90;;;;;;5015031;28;20298;-77
2022/11/12 06:26:17;;;;;;;75.27;43.73;;;9.00;99.90;;;;;;5024745;28;20206;-78
2022/11/12 06:28:44;;;;;;;77.13;43.80;;;9.00;99.90;;;;;;5034090;28;20199;-77
2022/11/12 06:31:12;;;;;;;72.27;42.83;;;9.00;99.90;;;;;;5016841;28;20218;-78
2022/11/12 06:33:39;;;;;;;74.47;43.10;;;9.00;99.90;;;;;;5014936;28;20230;-78
2022/11/12 06:36:07;;;;;;;76.47;44.53;;;9.00;99.90;;;;;;5014140;28;20211;-79
2022/11/12 06:38:35;;;;;;;71.80;42.27;;;9.00;99.90;;;;;;5014602;28;20215;-78
2022/11/12 06:41:02;;;;;;;67.60;41.40;;;9.00;99.90;;;;;;5014366;28;20226;-77
2022/11/12 06:43:31;;;;;;;64.47;38.90;;;9.00;99.90;;;;;;5014617;28;20223;-76
2022/11/12 06:46:00;;;;;;;63.93;38.20;;;9.00;99.90;;;;;;5013462;28;20219;-77
2022/11/12 06:48:28;;;;;;;67.47;39.63;;;9.00;99.90;;;;;;5013904;28;20208;-78
2022/11/12 06:50:56;;;;;;;62.47;38.70;;;9.00;99.90;;;;;;5019005;28;20569;-78
2022/11/12 06:53:23;;;;;;;74.87;44.30;;;9.00;99.90;;;;;;5014361;28;20226;-78
2022/11/12 06:55:50;;;;;;;78.67;44.57;;;9.00;99.90;;;;;;5014257;28;20226;-79
2022/11/12 06:58:17;;;;;;;76.37;44.03;;;9.00;99.90;;;;;;5014953;28;20199;-77
2022/11/12 07:00:44;;;;;;;85.43;45.40;;;9.10;99.90;;;;;;5032120;28;20297;-78
2022/11/12 07:03:14;;;;;;;78.60;43.33;;;9.10;99.90;;;;;;5013516;28;20233;-78
2022/11/12 07:05:43;;;;;;;79.77;43.70;;;9.00;99.90;;;;;;5013957;28;20207;-78
2022/11/12 07:08:10;;;;;;;76.90;43.10;;;9.10;99.90;;;;;;5013711;28;20206;-78
2022/11/12 07:10:36;;;;;;;75.60;40.43;;;9.10;99.90;;;;;;5017249;28;20285;-78
2022/11/12 07:13:04;;;;;;;76.90;39.90;;;9.00;99.90;;;;;;5033761;28;20195;-78
2022/11/12 07:15:31;;;;;;;71.30;39.90;;;9.10;99.90;;;;;;5033550;28;20290;-78
2022/11/12 07:17:57;;;;;;;79.37;41.03;;;9.00;99.90;;;;;;5032892;28;20615;-78
2022/11/12 07:20:24;;;;;;;70.27;38.80;;;9.00;99.90;;;;;;5016563;28;20208;-79
2022/11/12 07:22:53;;;;;;;65.30;37.67;;;9.00;99.90;;;;;;5013859;28;20292;-77
2022/11/12 07:25:19;;;;;;;59.90;35.00;;;9.00;99.90;;;;;;5012948;28;20203;-78
2022/11/12 07:27:46;;;;;;;58.27;33.53;;;9.00;99.90;;;;;;5013553;28;20215;-80
2022/11/12 07:30:14;;;;;;;59.77;34.93;;;9.10;99.90;;;;;;5013075;28;20207;-77
2022/11/12 07:32:41;;;;;;;64.20;34.43;;;9.00;99.90;;;;;;5020139;28;20190;-76
2022/11/12 07:35:08;;;;;;;57.47;33.07;;;9.00;99.90;;;;;;5028429;28;20206;-77
2022/11/12 07:37:35;;;;;;;59.67;32.67;;;9.10;99.90;;;;;;5012620;28;20203;-76
2022/11/12 07:40:04;;;;;;;53.97;31.53;;;9.00;99.90;;;;;;5013283;28;20631;-76
2022/11/12 07:42:33;;;;;;;63.47;34.10;;;9.00;99.90;;;;;;5012945;28;20231;-76
2022/11/12 07:45:00;;;;;;;59.07;32.30;;;9.00;99.90;;;;;;5012717;28;20253;-78
2022/11/12 07:47:27;;;;;;;56.83;32.03;;;9.00;99.90;;;;;;5012615;28;20218;-78
2022/11/12 07:49:54;;;;;;;60.70;32.63;;;9.10;99.90;;;;;;5013038;28;20776;-78
2022/11/12 07:52:21;;;;;;;61.37;34.03;;;9.00;99.90;;;;;;5012998;28;20201;-77
2022/11/12 07:54:48;;;;;;;58.43;33.97;;;9.10;99.90;;;;;;5013101;28;20296;-77
2022/11/12 07:57:17;;;;;;;56.70;31.53;;;9.10;99.90;;;;;;5012375;28;20679;-77
2022/11/12 07:59:44;;;;;;;66.10;34.77;;;9.10;99.90;;;;;;5011332;28;20318;-76
2022/11/12 08:02:10;;;;;;;65.60;34.67;;;9.20;99.90;;;;;;5011709;28;20218;-77
2022/11/12 08:04:37;;;;;;;66.57;34.23;;;9.20;99.90;;;;;;5026711;28;20211;-77
2022/11/12 08:07:04;;;;;;;62.77;33.23;;;9.20;99.90;;;;;;5030741;28;20617;-76
2022/11/12 08:09:33;;;;;;;59.80;33.57;;;9.20;99.90;;;;;;5027970;28;20202;-78
2022/11/12 08:12:00;;;;;;;62.17;33.77;;;9.20;99.90;;;;;;5011421;28;20229;-77
2022/11/12 08:14:28;;;;;;;65.73;35.27;;;9.20;99.90;;;;;;5012088;28;20239;-77
2022/11/12 08:16:55;;;;;;;59.20;33.57;;;9.30;99.90;;;;;;5012990;28;20293;-77
2022/11/12 08:19:22;;;;;;;61.37;33.33;;;9.30;99.90;;;;;;5012745;28;20203;-77
2022/11/12 08:21:48;;;;;;;60.63;32.80;;;9.30;99.90;;;;;;5012238;28;20199;-77
2022/11/12 08:24:15;;;;;;;56.17;30.93;;;9.30;99.90;;;;;;5024956;28;20206;-77
2022/11/12 08:26:42;;;;;;;56.43;31.53;;;9.40;99.90;;;;;;5031501;28;20237;-78
2022/11/12 08:29:09;;;;;;;63.33;36.67;;;9.40;99.90;;;;;;5028896;28;20206;-78
2022/11/12 08:31:37;;;;;;;55.77;32.40;;;9.40;99.90;;;;;;5029073;28;20214;-77
2022/11/12 08:34:10;;;;;;;62.33;34.57;;;9.40;99.90;;;;;;5031186;28;20282;-78
2022/11/12 08:36:41;;;;;;;58.60;32.53;;;9.40;99.90;;;;;;5020213;28;20226;-78
2022/11/12 08:39:08;;;;;;;54.37;31.40;;;9.50;99.90;;;;;;5024478;28;20281;-78
2022/11/12 08:41:35;;;;;;;59.27;33.93;;;9.50;99.90;;;;;;5011827;28;20228;-76
2022/11/12 08:44:02;;;;;;;58.57;32.50;;;9.50;99.90;;;;;;5012382;28;20203;-77
2022/11/12 08:46:29;;;;;;;61.47;34.70;;;9.50;99.90;;;;;;5011670;28;20218;-76
2022/11/12 08:48:57;;;;;;;67.90;35.87;;;9.60;99.90;;;;;;5012038;28;20203;-78
2022/11/12 08:51:24;;;;;;;55.23;32.33;;;9.60;99.90;;;;;;5012092;28;20319;-78
2022/11/12 08:53:51;;;;;;;47.23;30.13;;;9.60;99.90;;;;;;5012337;28;20286;-78
2022/11/12 08:56:18;;;;;;;48.77;30.60;;;9.60;99.90;;;;;;5011720;28;20578;-78
2022/11/12 08:58:45;;;;;;;46.40;28.93;;;9.50;99.90;;;;;;5012237;28;20199;-77
2022/11/12 09:01:12;;;;;;;47.13;29.60;;;9.60;99.90;;;;;;5011879;28;20630;-78
2022/11/12 09:03:38;;;;;;;44.53;27.90;;;9.50;99.90;;;;;;5011240;28;20259;-78
2022/11/12 09:06:07;;;;;;;47.40;29.70;;;9.60;99.90;;;;;;5012479;28;20575;-78
2022/11/12 09:08:36;;;;;;;53.17;30.93;;;9.50;99.90;;;;;;5012025;28;20207;-78
2022/11/12 09:11:04;;;;;;;60.43;34.40;;;9.60;99.90;;;;;;5011464;28;20272;-78
2022/11/12 09:13:31;;;;;;;59.47;34.57;;;9.60;99.90;;;;;;5012406;28;20746;-78
2022/11/12 09:16:02;;;;;;;57.47;33.97;;;9.60;99.90;;;;;;5010945;28;20217;-77
2022/11/12 09:18:30;;;;;;;57.43;34.27;;;9.60;99.90;;;;;;5012503;28;20195;-77
2022/11/12 09:21:01;;;;;;;62.87;35.30;;;9.60;99.90;;;;;;5011941;28;20210;-77
2022/11/12 09:23:29;;;;;;;57.87;32.10;;;9.70;99.90;;;;;;5011251;28;20648;-78
2022/11/12 09:25:57;;;;;;;54.13;32.60;;;9.70;99.90;;;;;;5020359;28;20211;-83
2022/11/12 09:28:24;;;;;;;55.47;33.60;;;9.70;99.90;;;;;;5031471;28;20206;-79
2022/11/12 09:30:52;;;;;;;57.33;33.30;;;9.80;99.90;;;;;;5031519;28;20795;-79
2022/11/12 09:33:21;;;;;;;56.43;33.63;;;9.80;99.90;;;;;;5032240;28;20194;-80
2022/11/12 09:35:49;;;;;;;54.30;33.37;;;9.90;99.90;;;;;;5020895;28;20199;-78
2022/11/12 09:38:16;;;;;;;63.57;34.63;;;9.90;99.90;;;;;;5011578;28;20214;-78
2022/11/12 09:41:03;;;;;;;60.83;35.23;;;9.90;99.90;;;;;;5011573;28;20671;-80
2022/11/12 09:43:34;;;;;;;58.20;32.37;;;9.90;99.90;;;;;;5011720;28;20215;-80
2022/11/12 09:46:08;;;;;;;60.73;35.20;;;10.00;99.90;;;;;;5010957;28;20196;-81
2022/11/12 09:48:40;;;;;;;54.50;32.23;;;10.00;99.90;;;;;;5012582;28;20206;-82
2022/11/12 09:51:13;;;;;;;51.67;33.07;;;10.10;99.90;;;;;;5059759;23;20230;-80
2022/11/12 09:53:46;;;;;;;45.13;29.63;;;10.10;99.90;;;;;;5055144;28;20267;-78
2022/11/12 09:56:18;;;;;;;45.57;28.73;;;10.20;99.90;;;;;;5054722;28;20590;-77
2022/11/12 09:58:45;;;;;;;40.63;28.27;;;10.20;99.90;;;;;;5054355;28;20598;-81
2022/11/12 10:01:15;;;;;;;41.57;28.10;;;10.20;99.90;;;;;;5049621;28;20210;-78
2022/11/12 10:03:51;;;;;;;40.67;29.00;;;10.30;99.90;;;;;;5035531;28;20210;-81
2022/11/12 10:06:21;;;;;;;40.27;28.43;;;10.30;99.90;;;;;;5034833;28;20273;-79
2022/11/12 10:08:52;;;;;;;39.63;26.43;;;10.30;99.90;;;;;;5035266;28;20248;-79
2022/11/12 10:14:54;;;;;;;32.23;25.50;;;10.40;99.90;;;;;;5034791;28;20235;-78
2022/11/12 10:17:28;;;;;;;28.73;22.70;;;10.50;99.90;;;;;;5035271;28;20194;-81
2022/11/12 10:20:04;;;;;;;31.13;23.80;;;10.60;99.90;;;;;;5043227;28;20214;-79
2022/11/12 10:22:53;;;;;;;31.37;23.90;;;10.70;99.90;;;;;;5055125;28;20586;-79
2022/11/12 10:25:20;;;;;;;28.63;22.43;;;10.80;99.90;;;;;;5050603;28;20622;-79
2022/11/12 10:27:49;;;;;;;28.57;22.10;;;10.80;99.90;;;;;;5034686;28;20203;-79
2022/11/12 10:30:18;;;;;;;26.80;21.80;;;10.90;99.90;;;;;;5042100;28;20210;-78
2022/11/12 10:32:46;;;;;;;28.57;22.97;;;11.10;99.90;;;;;;5054910;28;20281;-78
2022/11/12 10:35:18;;;;;;;29.80;23.73;;;11.10;99.90;;;;;;5054132;28;20896;-79
2022/11/12 10:37:50;;;;;;;26.60;21.57;;;11.20;99.90;;;;;;5048104;28;20209;-79
2022/11/12 10:40:30;;;;;;;27.27;21.73;;;11.30;99.90;;;;;;5034438;28;20199;-79
2022/11/12 10:43:00;;;;;;;25.57;21.97;;;11.40;99.90;;;;;;5034314;28;20538;-79
2022/11/12 10:45:28;;;;;;;25.10;20.37;;;11.50;99.90;;;;;;5034421;28;20219;-82
2022/11/12 10:47:55;;;;;;;21.90;19.33;;;11.60;99.90;;;;;;5033947;28;20764;-79
2022/11/12 10:50:25;;;;;;;24.23;20.00;;;11.70;99.90;;;;;;5033953;28;20629;-79
2022/11/12 10:52:59;;;;;;;21.77;19.03;;;11.80;99.90;;;;;;5034385;28;20193;-79
2022/11/12 10:55:27;;;;;;;23.03;19.07;;;12.00;99.90;;;;;;5033273;28;20511;-80
2022/11/12 10:58:05;;;;;;;21.07;18.53;;;12.00;99.90;;;;;;5043760;28;20209;-78
2022/11/12 11:00:33;;;;;;;19.20;17.13;;;12.10;99.90;;;;;;5054152;28;20202;-81
2022/11/12 11:03:03;;;;;;;20.27;17.60;;;12.20;99.90;;;;;;5053210;28;20228;-79
2022/11/12 11:05:34;;;;;;;18.90;16.83;;;12.30;99.90;;;;;;5053521;28;20201;-80
2022/11/12 11:08:01;;;;;;;18.20;15.80;;;12.40;99.90;;;;;;5042356;28;20203;-81
2022/11/12 11:10:30;;;;;;;18.47;16.37;;;12.40;99.90;;;;;;5034073;28;20218;-81
2022/11/12 11:13:20;;;;;;;18.27;14.60;;;12.50;99.90;;;;;;5034362;28;20217;-81
2022/11/12 11:15:59;;;;;;;15.83;14.00;;;12.50;99.90;;;;;;5033233;28;20198;-81
2022/11/12 11:18:30;;;;;;;14.70;12.57;;;12.70;99.90;;;;;;5034361;28;20272;-81
2022/11/12 11:21:06;;;;;;;14.80;12.77;;;12.70;99.90;;;;;;5033282;28;20195;-81
2022/11/12 11:23:37;;;;;;;13.57;12.07;;;12.80;99.90;;;;;;5033722;28;20637;-81
2022/11/12 11:26:18;;;;;;;11.73;10.53;;;12.90;99.90;;;;;;5034557;28;20200;-80
2022/11/12 11:28:56;;;;;;;14.07;11.67;;;12.90;99.90;;;;;;5033947;28;20591;-81
2022/11/12 11:31:32;;;;;;;12.47;10.90;;;13.00;99.90;;;;;;5049637;28;20251;-79
2022/11/12 11:34:15;;;;;;;12.23;10.53;;;13.10;99.90;;;;;;5054404;28;20280;-81
2022/11/12 11:36:51;;;;;;;13.30;10.37;;;13.10;99.90;;;;;;5054162;28;20200;-81
2022/11/12 11:39:25;;;;;;;11.40;9.90;;;13.20;99.90;;;;;;5046421;28;20234;-81
2022/11/12 11:42:03;;;;;;;11.33;9.53;;;13.20;99.90;;;;;;5034072;28;20256;-82
2022/11/12 11:44:40;;;;;;;11.03;9.63;;;13.30;99.90;;;;;;5033854;28;20229;-82
2022/11/12 11:47:20;;;;;;;10.37;8.77;;;13.30;99.90;;;;;;5034504;28;20198;-81
2022/11/12 11:50:18;;;;;;;12.43;9.30;;;13.40;99.90;;;;;;5034249;28;20321;-80
2022/11/12 11:52:46;;;;;;;8.93;8.00;;;13.50;99.90;;;;;;5033674;28;20286;-81
2022/11/12 11:55:32;;;;;;;12.17;8.40;;;13.60;99.90;;;;;;5040571;28;20206;-81
2022/11/12 11:58:10;;;;;;;11.10;8.60;;;13.60;99.90;;;;;;5053954;28;20605;-81
2022/11/12 12:00:48;;;;;;;8.77;7.67;;;13.70;99.90;;;;;;5054122;28;20202;-82
2022/11/12 12:03:20;;;;;;;9.10;7.83;;;13.70;99.90;;;;;;5054654;28;20224;-82
2022/11/12 12:06:01;;;;;;;9.67;7.90;;;13.70;99.90;;;;;;5037595;28;20610;-80
2022/11/12 12:08:40;;;;;;;10.67;7.20;;;13.80;99.90;;;;;;5037688;28;20202;-82
2022/11/12 12:11:14;;;;;;;9.55;7.50;;;13.90;99.90;;;;;;5054034;28;20309;-82
2022/11/12 12:13:56;;;;;;;10.40;7.13;;;13.90;99.90;;;;;;5040698;28;20194;-82
2022/11/12 12:16:42;;;;;;;10.57;7.13;;;13.90;99.90;;;;;;5033758;28;20198;-82
2022/11/12 12:19:20;;;;;;;7.23;6.10;;;14.00;99.90;;;;;;5034160;28;20785;-82
2022/11/12 12:21:51;;;;;;;6.78;5.88;;;14.00;99.90;;;;;;5034610;28;20198;-83
2022/11/12 12:24:22;;;;;;;7.65;6.10;;;14.00;99.90;;;;;;5033926;28;20230;-82
2022/11/12 12:26:54;;;;;;;7.07;5.88;;;14.00;99.90;;;;;;5033476;28;20222;-81
2022/11/12 12:29:29;;;;;;;6.25;5.65;;;14.10;99.90;;;;;;5034571;28;20203;-83
2022/11/12 12:32:03;;;;;;;6.33;5.73;;;14.10;99.90;;;;;;5033916;28;20222;-82
2022/11/12 12:34:34;;;;;;;6.75;6.15;;;14.10;99.90;;;;;;5033591;28;20198;-82
2022/11/12 12:37:10;;;;;;;6.22;5.63;;;14.10;99.90;;;;;;5033694;28;20603;-82
2022/11/12 12:39:42;;;;;;;6.07;5.15;;;14.20;99.90;;;;;;5033922;28;20186;-82
2022/11/12 12:42:16;;;;;;;5.25;4.50;;;14.20;99.90;;;;;;5033400;28;20202;-81
2022/11/12 12:45:03;;;;;;;6.00;4.55;;;14.20;99.90;;;;;;5032883;28;20229;-81
2022/11/12 12:47:38;;;;;;;5.90;4.78;;;14.20;99.90;;;;;;5032933;28;20203;-81
2022/11/12 12:50:12;;;;;;;6.00;4.50;;;14.30;99.90;;;;;;5033056;28;20249;-83
2022/11/12 12:53:01;;;;;;;5.75;4.78;;;14.20;99.90;;;;;;5032772;28;20194;-82
2022/11/12 12:55:47;;;;;;;5.15;4.28;;;14.20;99.90;;;;;;5033028;28;20230;-81
2022/11/12 12:58:21;;;;;;;4.45;4.05;;;14.30;99.90;;;;;;5033489;28;20229;-82
2022/11/12 13:00:50;;;;;;;4.47;4.03;;;14.30;99.90;;;;;;5033454;28;20244;-82
2022/11/12 13:03:50;;;;;;;4.93;4.28;;;14.30;99.90;;;;;;5033932;28;20298;-80
2022/11/12 13:06:28;;;;;;;5.78;4.38;;;14.30;99.90;;;;;;5033476;28;20226;-81
2022/11/12 13:09:00;;;;;;;4.93;4.07;;;14.40;99.90;;;;;;5049189;28;20201;-82
2022/11/12 13:15:15;;;;;;;4.72;4.32;;;14.40;99.90;;;;;;5027220;28;20198;-82